Time;durP1;ratioP1;P1;durP2;ratioP2;P2;SDS_P1;SDS_P2;PMS_P1;PMS_P2;Temp;Humidity;BMP_temperature;BMP_pressure;BME280_temperature;BME280_humidity;BME280_pressure;Samples;Min_cycle;Max_cycle;Signal;HPM_P1;HPM_P2
2022/02/18 00:00:46;;;;;;;;;;;;;;;8.91;51.09;99392.78;4474535;31;34965;-80
2022/02/18 00:03:14;;;;;;;;;;;;;;;8.77;51.44;99410.97;4462699;31;31686;-79
2022/02/18 00:05:43;;;;;;;;;;;;;;;8.75;51.26;99404.97;4476798;31;34067;-79
2022/02/18 00:08:10;;;;;;;;;;;;;;;8.84;51.33;99412.94;4463740;31;35677;-80
2022/02/18 00:10:39;;;;;;;;;;;;;;;8.82;50.94;99420.19;4467643;31;34554;-79
2022/02/18 00:13:07;;;;;;;;;;;;;;;8.59;51.39;99416.19;4464278;31;32733;-78
2022/02/18 00:15:35;;;;;;;;;;;;;;;8.99;50.70;99418.62;4477419;31;33896;-80
2022/02/18 00:18:03;;;;;;;;;;;;;;;8.94;50.50;99416.41;4478476;31;36013;-79
2022/02/18 00:20:30;;;;;;;;;;;;;;;8.74;51.07;99416.56;4462124;31;34586;-80
2022/02/18 00:23:01;;;;;;;;;;;;;;;8.92;50.55;99426.34;4463502;31;33107;-79
2022/02/18 00:25:30;;;;;;;;;;;;;;;9.03;49.99;99438.56;4464425;31;34377;-82
2022/02/18 00:28:00;;;;;;;;;;;;;;;8.92;49.97;99465.28;4463884;31;35764;-79
2022/02/18 00:30:28;;;;;;;;;;;;;;;8.78;50.00;99458.59;4449663;31;36142;-79
2022/02/18 00:32:55;;;;;;;;;;;;;;;8.86;49.53;99463.19;4462812;31;34097;-78
2022/02/18 00:35:23;;;;;;;;;;;;;;;8.73;50.07;99475.91;4446456;31;35380;-79
2022/02/18 00:37:52;;;;;;;;;;;;;;;8.94;49.36;99450.91;4468002;31;34425;-80
2022/02/18 00:40:20;;;;;;;;;;;;;;;8.93;49.12;99443.91;4465265;31;34607;-80
2022/02/18 00:42:49;;;;;;;;;;;;;;;8.74;49.26;99449.25;4488182;31;33688;-79
2022/02/18 00:45:16;;;;;;;;;;;;;;;9.15;48.69;99456.84;4473649;31;33925;-79
2022/02/18 00:47:47;;;;;;;;;;;;;;;9.07;48.91;99462.03;4468684;31;37615;-80
2022/02/18 00:50:14;;;;;;;;;;;;;;;8.95;48.66;99468.47;4463416;31;32957;-79
2022/02/18 00:52:41;;;;;;;;;;;;;;;8.89;48.83;99466.38;4477604;31;33500;-80
2022/02/18 00:55:09;;;;;;;;;;;;;;;9.02;48.32;99468.75;4450740;31;34078;-80
2022/02/18 00:57:38;;;;;;;;;;;;;;;8.95;48.74;99464.97;4465364;31;34619;-80
2022/02/18 01:00:09;;;;;;;;;;;;;;;8.86;48.80;99456.06;4470213;31;35223;-81
2022/02/18 01:02:37;;;;;;;;;;;;;;;9.01;49.00;99473.22;4471660;31;33126;-80
2022/02/18 01:05:05;;;;;;;;;;;;;;;8.61;49.66;99461.13;4470682;31;34866;-78
2022/02/18 01:07:32;;;;;;;;;;;;;;;8.97;48.77;99449.78;4461338;31;33587;-80
2022/02/18 01:10:00;;;;;;;;;;;;;;;8.75;49.82;99450.06;4469495;31;35156;-79
2022/02/18 01:12:27;;;;;;;;;;;;;;;8.89;49.12;99454.97;4455206;31;33420;-81
2022/02/18 01:14:59;;;;;;;;;;;;;;;8.81;49.32;99449.53;4477460;31;33552;-79
2022/02/18 01:17:26;;;;;;;;;;;;;;;9.03;48.77;99439.44;4463863;31;36125;-78
2022/02/18 01:19:53;;;;;;;;;;;;;;;9.25;48.63;99438.25;4453285;31;33810;-78
2022/02/18 01:22:21;;;;;;;;;;;;;;;9.38;48.12;99436.91;4465463;31;33064;-79
2022/02/18 01:24:48;;;;;;;;;;;;;;;9.40;48.05;99426.16;4466329;31;33300;-80
2022/02/18 01:27:17;;;;;;;;;;;;;;;9.32;48.15;99431.38;4466839;31;33107;-80
2022/02/18 01:29:44;;;;;;;;;;;;;;;9.14;48.68;99428.63;4448761;31;33844;-81
2022/02/18 01:32:12;;;;;;;;;;;;;;;9.02;49.17;99445.72;4453235;31;33594;-80
2022/02/18 01:34:40;;;;;;;;;;;;;;;8.71;49.80;99449.50;4449725;31;32070;-80
2022/02/18 01:37:07;;;;;;;;;;;;;;;8.82;49.54;99441.41;4463257;31;34970;-80
2022/02/18 01:39:35;;;;;;;;;;;;;;;9.02;49.12;99428.94;4474091;31;34242;-79
2022/02/18 01:42:03;;;;;;;;;;;;;;;9.17;49.03;99433.66;4463337;31;31608;-80
2022/02/18 01:44:31;;;;;;;;;;;;;;;9.23;49.10;99427.78;4449680;31;32389;-79
2022/02/18 01:46:59;;;;;;;;;;;;;;;9.54;48.25;99417.75;4487194;31;36317;-78
2022/02/18 01:49:27;;;;;;;;;;;;;;;9.38;48.55;99405.06;4438905;31;33663;-80
2022/02/18 01:51:55;;;;;;;;;;;;;;;9.05;49.51;99408.28;4451315;31;32704;-80
2022/02/18 01:54:23;;;;;;;;;;;;;;;9.47;48.55;99392.75;4466293;31;33838;-80
2022/02/18 01:56:50;;;;;;;;;;;;;;;9.58;48.24;99377.47;4465331;31;35681;-79
2022/02/18 01:59:18;;;;;;;;;;;;;;;8.99;49.89;99384.97;4461255;31;32759;-77
2022/02/18 02:01:46;;;;;;;;;;;;;;;9.04;49.90;99365.97;4464242;31;33965;-78
2022/02/18 02:04:14;;;;;;;;;;;;;;;8.88;50.36;99371.06;4484662;31;33945;-79
2022/02/18 02:06:42;;;;;;;;;;;;;;;9.12;49.95;99353.66;4458560;31;35256;-80
2022/02/18 02:09:13;;;;;;;;;;;;;;;9.09;50.41;99345.16;4464437;31;34727;-80
2022/02/18 02:11:41;;;;;;;;;;;;;;;9.05;49.97;99333.97;4487018;31;33432;-78
2022/02/18 02:14:08;;;;;;;;;;;;;;;9.00;50.27;99330.91;4464062;31;33476;-79
2022/02/18 02:16:37;;;;;;;;;;;;;;;8.92;50.27;99330.84;4485377;31;34252;-79
2022/02/18 02:19:05;;;;;;;;;;;;;;;8.66;50.87;99334.25;4473493;31;33848;-80
2022/02/18 02:21:32;;;;;;;;;;;;;;;8.93;49.71;99335.16;4460763;31;31966;-79
2022/02/18 02:23:59;;;;;;;;;;;;;;;8.87;50.06;99335.72;4463525;31;34772;-80
2022/02/18 02:26:28;;;;;;;;;;;;;;;8.88;49.84;99339.22;4458241;31;35941;-80
2022/02/18 02:28:58;;;;;;;;;;;;;;;8.83;49.67;99341.47;4449358;31;32451;-79
2022/02/18 02:31:26;;;;;;;;;;;;;;;8.83;49.24;99381.25;4461819;31;33420;-78
2022/02/18 02:33:54;;;;;;;;;;;;;;;9.05;48.70;99373.78;4463845;31;34059;-80
2022/02/18 02:36:23;;;;;;;;;;;;;;;9.04;48.87;99379.22;4450614;31;36017;-80
2022/02/18 02:38:51;;;;;;;;;;;;;;;9.11;48.42;99393.59;4461943;31;35519;-80
2022/02/18 02:41:19;;;;;;;;;;;;;;;9.10;48.49;99390.09;4480596;31;33994;-80
2022/02/18 02:43:47;;;;;;;;;;;;;;;9.19;47.96;99415.75;4435854;31;32386;-79
2022/02/18 02:46:15;;;;;;;;;;;;;;;9.01;48.24;99430.78;4449218;31;35460;-77
2022/02/18 02:48:42;;;;;;;;;;;;;;;9.25;47.58;99428.47;4463424;31;32859;-81
2022/02/18 02:51:10;;;;;;;;;;;;;;;9.18;47.41;99442.47;4448741;31;31725;-78
2022/02/18 02:53:39;;;;;;;;;;;;;;;9.30;46.63;99444.81;4457670;31;33823;-79
2022/02/18 02:56:07;;;;;;;;;;;;;;;9.54;46.10;99465.53;4453017;31;34879;-79
2022/02/18 02:58:35;;;;;;;;;;;;;;;9.38;46.46;99457.34;4464060;31;35173;-80
2022/02/18 03:01:04;;;;;;;;;;;;;;;9.09;47.02;99469.84;4435947;31;32139;-79
2022/02/18 03:03:32;;;;;;;;;;;;;;;9.20;47.10;99473.19;4481778;31;33424;-78
2022/02/18 03:05:59;;;;;;;;;;;;;;;9.19;46.91;99474.16;4450013;31;35507;-80
2022/02/18 03:08:28;;;;;;;;;;;;;;;9.40;46.14;99492.53;4455008;31;33865;-79
2022/02/18 03:11:14;;;;;;;;;;;;;;;9.00;47.47;99499.91;4478851;31;33513;-79
2022/02/18 03:13:45;;;;;;;;;;;;;;;9.20;46.53;99509.50;4463220;31;33764;-80
2022/02/18 03:16:13;;;;;;;;;;;;;;;9.05;47.04;99500.28;4475328;31;35809;-79
2022/02/18 03:18:42;;;;;;;;;;;;;;;9.27;46.22;99500.00;4471026;31;34153;-80
2022/02/18 03:21:09;;;;;;;;;;;;;;;9.04;46.33;99527.81;4483906;31;32795;-81
2022/02/18 03:23:37;;;;;;;;;;;;;;;9.11;45.95;99537.75;4464195;31;33862;-79
2022/02/18 03:26:06;;;;;;;;;;;;;;;9.11;46.05;99531.56;4483668;31;34592;-79
2022/02/18 03:28:34;;;;;;;;;;;;;;;9.26;46.18;99536.31;4463611;31;32712;-78
2022/02/18 03:31:08;;;;;;;;;;;;;;;9.24;45.58;99527.66;4466422;31;33034;-79
2022/02/18 03:33:41;;;;;;;;;;;;;;;9.20;46.15;99520.97;4476436;31;33613;-79
2022/02/18 03:36:09;;;;;;;;;;;;;;;9.25;46.00;99539.94;4461288;31;35208;-80
2022/02/18 03:38:36;;;;;;;;;;;;;;;9.18;46.47;99530.84;4464977;31;34784;-77
2022/02/18 03:41:04;;;;;;;;;;;;;;;9.32;45.66;99529.59;4468931;31;31734;-80
2022/02/18 03:43:32;;;;;;;;;;;;;;;9.03;45.99;99534.09;4451095;31;33978;-79
2022/02/18 03:46:02;;;;;;;;;;;;;;;9.27;46.20;99534.50;4462155;31;34334;-78
2022/02/18 03:48:30;;;;;;;;;;;;;;;9.51;45.29;99538.34;4464368;31;34466;-79
2022/02/18 03:50:58;;;;;;;;;;;;;;;9.38;45.37;99534.34;4479549;31;33939;-78
2022/02/18 03:53:26;;;;;;;;;;;;;;;9.46;46.00;99542.41;4468213;31;35150;-78
2022/02/18 03:55:54;;;;;;;;;;;;;;;9.15;46.37;99548.88;4462530;31;35761;-77
2022/02/18 03:58:22;;;;;;;;;;;;;;;9.27;45.77;99558.37;4457586;31;35105;-79
2022/02/18 04:00:49;;;;;;;;;;;;;;;9.34;45.36;99560.31;4449459;31;31875;-80
2022/02/18 04:03:17;;;;;;;;;;;;;;;9.45;45.22;99560.16;4482436;31;33790;-79
2022/02/18 04:05:51;;;;;;;;;;;;;;;9.24;45.50;99578.09;4480175;31;34601;-77
2022/02/18 04:08:20;;;;;;;;;;;;;;;9.05;45.96;99574.59;4450823;31;33870;-78
2022/02/18 04:10:48;;;;;;;;;;;;;;;9.06;46.06;99579.75;4462947;31;33301;-76
2022/02/18 04:13:17;;;;;;;;;;;;;;;9.30;45.71;99576.69;4463517;31;34764;-78
2022/02/18 04:15:44;;;;;;;;;;;;;;;8.94;46.04;99596.81;4461087;31;36442;-78
2022/02/18 04:18:12;;;;;;;;;;;;;;;9.17;46.22;99592.88;4466058;31;34263;-79
2022/02/18 04:20:39;;;;;;;;;;;;;;;8.93;46.29;99597.78;4470515;31;33371;-79
2022/02/18 04:23:28;;;;;;;;;;;;;;;8.63;46.55;99602.34;4463757;31;33285;-80
2022/02/18 04:25:55;;;;;;;;;;;;;;;8.58;47.27;99605.41;4481948;31;34826;-78
2022/02/18 04:28:23;;;;;;;;;;;;;;;8.70;47.18;99611.44;4453513;31;33939;-79
2022/02/18 04:30:51;;;;;;;;;;;;;;;8.73;46.76;99605.84;4453121;31;32633;-78
2022/02/18 04:33:22;;;;;;;;;;;;;;;8.48;46.78;99601.91;4481690;31;34629;-77
2022/02/18 04:35:50;;;;;;;;;;;;;;;8.83;46.50;99604.03;4462128;31;35207;-78
2022/02/18 04:38:17;;;;;;;;;;;;;;;8.22;47.03;99629.00;4461880;31;33620;-77
2022/02/18 04:40:45;;;;;;;;;;;;;;;8.39;47.01;99631.00;4489831;31;33291;-78
2022/02/18 04:43:13;;;;;;;;;;;;;;;8.41;47.17;99637.03;4474667;31;34151;-79
2022/02/18 04:45:41;;;;;;;;;;;;;;;8.27;47.76;99628.59;4472055;31;35369;-78
2022/02/18 04:48:09;;;;;;;;;;;;;;;8.61;46.94;99625.50;4455811;31;32969;-79
2022/02/18 04:50:36;;;;;;;;;;;;;;;8.73;46.80;99617.28;4483567;31;34038;-78
2022/02/18 04:53:25;;;;;;;;;;;;;;;8.77;46.63;99625.81;4446776;31;34816;-79
2022/02/18 04:55:52;;;;;;;;;;;;;;;8.72;46.85;99625.41;4471170;31;34915;-78
2022/02/18 04:58:20;;;;;;;;;;;;;;;8.80;46.67;99612.28;4477814;31;33930;-77
2022/02/18 05:00:48;;;;;;;;;;;;;;;8.64;47.71;99618.13;4465184;31;33170;-78
2022/02/18 05:03:16;;;;;;;;;;;;;;;8.48;48.37;99613.47;4449925;31;33847;-78
2022/02/18 05:05:43;;;;;;;;;;;;;;;8.68;47.81;99614.22;4485590;31;35208;-77
2022/02/18 05:08:12;;;;;;;;;;;;;;;8.75;48.63;99611.84;4468079;31;34168;-78
2022/02/18 05:10:42;;;;;;;;;;;;;;;8.54;49.22;99608.47;4453545;31;33310;-78
2022/02/18 05:13:10;;;;;;;;;;;;;;;8.38;50.17;99621.38;4469264;31;33898;-78
2022/02/18 05:15:38;;;;;;;;;;;;;;;8.66;50.08;99612.66;4485102;31;35320;-79
2022/02/18 05:18:06;;;;;;;;;;;;;;;8.37;51.18;99613.59;4470845;31;34602;-79
2022/02/18 05:20:34;;;;;;;;;;;;;;;8.46;51.42;99616.25;4471346;31;32522;-78
2022/02/18 05:23:04;;;;;;;;;;;;;;;8.58;51.40;99633.72;4465044;31;33295;-79
2022/02/18 05:25:31;;;;;;;;;;;;;;;8.67;51.80;99636.41;4453166;31;34546;-78
2022/02/18 05:27:59;;;;;;;;;;;;;;;8.30;52.69;99634.47;4479081;31;33918;-78
2022/02/18 05:30:27;;;;;;;;;;;;;;;8.22;53.28;99631.66;4437286;31;31451;-77
2022/02/18 05:32:55;;;;;;;;;;;;;;;8.10;53.63;99634.50;4482687;31;34096;-78
2022/02/18 05:35:23;;;;;;;;;;;;;;;8.39;53.21;99628.37;4462922;31;35396;-78
2022/02/18 05:37:51;;;;;;;;;;;;;;;8.54;52.62;99629.69;4466973;31;34355;-78
2022/02/18 05:40:19;;;;;;;;;;;;;;;8.48;52.77;99627.56;4449753;31;33489;-80
2022/02/18 05:42:46;;;;;;;;;;;;;;;8.73;51.97;99633.19;4455753;31;33993;-78
2022/02/18 05:45:14;;;;;;;;;;;;;;;8.77;51.94;99636.41;4487306;31;35636;-79
2022/02/18 05:47:42;;;;;;;;;;;;;;;8.64;52.64;99631.38;4464156;31;34340;-80
2022/02/18 05:50:12;;;;;;;;;;;;;;;8.86;51.90;99625.84;4455963;31;33172;-79
2022/02/18 05:52:41;;;;;;;;;;;;;;;8.98;51.73;99637.16;4462180;31;33870;-78
2022/02/18 05:55:09;;;;;;;;;;;;;;;8.99;51.45;99634.34;4464593;31;35282;-79
2022/02/18 05:57:37;;;;;;;;;;;;;;;9.09;51.40;99645.00;4462708;31;34602;-78
2022/02/18 06:00:09;;;;;;;;;;;;;;;8.99;51.85;99652.09;4486878;31;32805;-80
2022/02/18 06:02:39;;;;;;;;;;;;;;;8.82;52.39;99655.44;4462618;31;33957;-79
2022/02/18 06:05:07;;;;;;;;;;;;;;;8.84;53.04;99664.06;4467026;31;35605;-79
2022/02/18 06:07:34;;;;;;;;;;;;;;;8.47;54.20;99662.19;4454865;31;34888;-79
2022/02/18 06:10:02;;;;;;;;;;;;;;;8.55;53.96;99677.28;4476138;31;33770;-79
2022/02/18 06:12:30;;;;;;;;;;;;;;;8.51;54.26;99672.38;4462059;31;32415;-79
2022/02/18 06:14:57;;;;;;;;;;;;;;;8.42;54.32;99680.28;4464103;31;36252;-79
2022/02/18 06:17:25;;;;;;;;;;;;;;;8.60;53.98;99679.53;4448653;31;33052;-80
2022/02/18 06:19:54;;;;;;;;;;;;;;;8.79;53.49;99698.16;4466051;31;33750;-79
2022/02/18 06:22:22;;;;;;;;;;;;;;;8.62;53.43;99693.47;4482242;31;33620;-79
2022/02/18 06:24:50;;;;;;;;;;;;;;;8.70;53.46;99694.47;4467711;31;34859;-79
2022/02/18 06:27:18;;;;;;;;;;;;;;;8.75;52.27;99686.97;4484842;31;34128;-79
2022/02/18 06:29:49;;;;;;;;;;;;;;;8.80;51.90;99684.72;4455380;31;32918;-79
2022/02/18 06:32:16;;;;;;;;;;;;;;;8.81;51.67;99690.88;4481253;31;33622;-80
2022/02/18 06:34:44;;;;;;;;;;;;;;;8.78;50.94;99693.78;4490853;31;36063;-77
2022/02/18 06:37:11;;;;;;;;;;;;;;;9.07;50.06;99681.44;4473022;31;34250;-79
2022/02/18 06:39:38;;;;;;;;;;;;;;;8.97;49.84;99693.88;4425686;31;1212297;-79
2022/02/18 06:42:10;;;;;;;;;;;;;;;8.70;50.10;99697.13;4447127;31;33736;-78
2022/02/18 06:44:37;;;;;;;;;;;;;;;8.64;50.19;99683.56;4463649;31;34556;-79
2022/02/18 06:47:05;;;;;;;;;;;;;;;9.07;49.25;99681.44;4460991;31;35090;-79
2022/02/18 06:49:33;;;;;;;;;;;;;;;9.03;48.70;99688.84;4456520;31;31640;-78
2022/02/18 06:52:00;;;;;;;;;;;;;;;9.00;49.48;99702.38;4464620;31;34358;-79
2022/02/18 06:54:28;;;;;;;;;;;;;;;8.93;48.32;99703.91;4464019;31;35418;-78
2022/02/18 06:56:57;;;;;;;;;;;;;;;9.23;48.20;99692.34;4455423;31;33327;-80
2022/02/18 06:59:25;;;;;;;;;;;;;;;9.34;47.29;99692.22;4480962;31;33843;-81
2022/02/18 07:01:54;;;;;;;;;;;;;;;9.43;46.56;99691.38;4456176;31;33533;-78
2022/02/18 07:04:22;;;;;;;;;;;;;;;9.58;46.16;99698.81;4476067;31;34876;-81
2022/02/18 07:06:50;;;;;;;;;;;;;;;9.88;46.11;99695.97;4461334;31;33935;-80
2022/02/18 07:09:19;;;;;;;;;;;;;;;10.20;45.97;99704.47;4462386;31;32111;-80
2022/02/18 07:11:46;;;;;;;;;;;;;;;10.04;46.52;99733.47;4470910;31;31941;-80
2022/02/18 07:14:14;;;;;;;;;;;;;;;10.25;45.28;99733.28;4442463;31;35156;-80
2022/02/18 07:16:42;;;;;;;;;;;;;;;9.87;45.54;99743.94;4461180;31;34892;-80
2022/02/18 07:19:13;;;;;;;;;;;;;;;9.92;45.13;99747.03;4469486;31;31749;-80
2022/02/18 07:21:41;;;;;;;;;;;;;;;9.85;45.00;99752.06;4456231;31;33472;-80
2022/02/18 07:24:08;;;;;;;;;;;;;;;10.14;44.92;99741.41;4464416;31;34551;-80
2022/02/18 07:26:37;;;;;;;;;;;;;;;10.00;45.27;99747.97;4461230;31;34716;-80
2022/02/18 07:29:04;;;;;;;;;;;;;;;10.12;45.75;99754.03;4472252;31;34165;-79
2022/02/18 07:31:32;;;;;;;;;;;;;;;9.69;45.78;99756.25;4482243;31;34060;-80
2022/02/18 07:33:59;;;;;;;;;;;;;;;10.09;45.76;99739.19;4457423;31;34553;-80
2022/02/18 07:36:27;;;;;;;;;;;;;;;10.20;45.45;99730.22;4463098;31;34598;-80
2022/02/18 07:38:54;;;;;;;;;;;;;;;10.55;44.44;99730.38;4471185;31;33514;-81
2022/02/18 07:41:22;;;;;;;;;;;;;;;10.33;44.82;99736.06;4460780;31;33897;-80
2022/02/18 07:43:49;;;;;;;;;;;;;;;10.25;44.52;99726.16;4475970;31;35841;-78
2022/02/18 07:46:17;;;;;;;;;;;;;;;10.45;44.43;99732.22;4481126;31;34501;-80
2022/02/18 07:48:45;;;;;;;;;;;;;;;10.36;45.00;99731.28;4450427;31;33828;-79
2022/02/18 07:51:12;;;;;;;;;;;;;;;10.48;44.67;99729.31;4463538;31;33994;-80
2022/02/18 07:53:41;;;;;;;;;;;;;;;10.56;44.40;99730.25;4471645;31;34837;-80
2022/02/18 07:56:09;;;;;;;;;;;;;;;10.36;45.26;99725.97;4449479;31;33917;-80
2022/02/18 07:58:37;;;;;;;;;;;;;;;10.75;44.80;99729.34;4456237;31;33033;-80
2022/02/18 08:01:04;;;;;;;;;;;;;;;10.85;44.56;99728.28;4457975;31;32187;-80
2022/02/18 08:03:32;;;;;;;;;;;;;;;10.66;44.18;99728.38;4458734;31;36256;-79
2022/02/18 08:05:59;;;;;;;;;;;;;;;10.47;45.53;99731.09;4447484;31;33028;-80
2022/02/18 08:08:30;;;;;;;;;;;;;;;10.70;45.09;99740.41;4460036;31;31597;-79
2022/02/18 08:10:58;;;;;;;;;;;;;;;10.54;45.32;99739.34;4460583;31;34627;-80
2022/02/18 08:13:25;;;;;;;;;;;;;;;10.58;45.20;99741.56;4458462;31;36061;-81
2022/02/18 08:15:53;;;;;;;;;;;;;;;10.28;45.10;99740.97;4448041;31;35321;-80
2022/02/18 08:18:20;;;;;;;;;;;;;;;10.32;45.27;99748.53;4447500;31;32826;-81
2022/02/18 08:20:49;;;;;;;;;;;;;;;10.43;46.26;99742.19;4462019;31;33829;-79
2022/02/18 08:23:16;;;;;;;;;;;;;;;10.63;45.33;99749.97;4456967;32;34111;-80
2022/02/18 08:25:44;;;;;;;;;;;;;;;10.75;45.35;99747.97;4461566;31;33979;-80
2022/02/18 08:28:11;;;;;;;;;;;;;;;10.49;45.49;99762.88;4472172;31;32789;-80
2022/02/18 08:30:41;;;;;;;;;;;;;;;10.18;46.13;99745.47;4468153;31;34104;-78
2022/02/18 08:33:09;;;;;;;;;;;;;;;10.10;46.51;99758.66;4474060;31;35432;-78
2022/02/18 08:35:37;;;;;;;;;;;;;;;10.22;45.96;99763.66;4461301;31;34407;-79
2022/02/18 08:38:04;;;;;;;;;;;;;;;10.00;46.46;99774.56;4461764;31;33122;-81
2022/02/18 08:40:33;;;;;;;;;;;;;;;10.40;46.32;99769.91;4440099;31;32357;-78
2022/02/18 08:43:01;;;;;;;;;;;;;;;10.20;46.16;99773.56;4466463;31;34562;-79
2022/02/18 08:45:29;;;;;;;;;;;;;;;10.09;46.96;99784.38;4460294;31;34163;-80
2022/02/18 08:47:57;;;;;;;;;;;;;;;10.50;46.14;99791.16;4469133;31;34144;-79
2022/02/18 08:50:25;;;;;;;;;;;;;;;10.65;45.46;99790.56;4463341;31;34532;-80
2022/02/18 08:52:52;;;;;;;;;;;;;;;10.43;46.38;99808.66;4460635;31;34493;-80
2022/02/18 08:55:21;;;;;;;;;;;;;;;10.71;45.88;99813.06;4474515;31;34071;-80
2022/02/18 08:57:51;;;;;;;;;;;;;;;10.72;46.10;99812.09;4447269;31;31857;-81
2022/02/18 09:00:18;;;;;;;;;;;;;;;10.62;45.87;99813.94;4452467;31;33956;-80
2022/02/18 09:02:46;;;;;;;;;;;;;;;10.41;46.35;99830.09;4444895;31;35341;-78
2022/02/18 09:05:13;;;;;;;;;;;;;;;10.06;47.39;99823.69;4460259;31;34343;-79
2022/02/18 09:07:43;;;;;;;;;;;;;;;9.90;47.82;99821.56;4474241;31;33421;-79
2022/02/18 09:10:11;;;;;;;;;;;;;;;10.22;46.64;99823.97;4480604;31;33869;-80
2022/02/18 09:12:40;;;;;;;;;;;;;;;10.11;46.43;99822.28;4460733;31;35071;-79
2022/02/18 09:15:08;;;;;;;;;;;;;;;10.29;46.75;99825.09;4446473;31;33720;-79
2022/02/18 09:17:37;;;;;;;;;;;;;;;10.24;47.02;99814.00;4448427;31;33264;-79
2022/02/18 09:20:05;;;;;;;;;;;;;;;10.51;45.83;99822.94;4461083;31;33461;-80
2022/02/18 09:22:32;;;;;;;;;;;;;;;10.60;46.41;99815.91;4461841;31;34432;-80
2022/02/18 09:25:00;;;;;;;;;;;;;;;10.67;46.30;99828.50;4479939;31;35087;-79
2022/02/18 09:27:27;;;;;;;;;;;;;;;10.50;46.83;99831.06;4447569;31;33505;-78
2022/02/18 09:29:56;;;;;;;;;;;;;;;10.64;46.44;99819.94;4446249;31;33783;-79
2022/02/18 09:32:24;;;;;;;;;;;;;;;10.54;46.54;99835.09;4459474;31;33649;-79
2022/02/18 09:34:51;;;;;;;;;;;;;;;10.59;46.02;99841.66;4462147;31;34416;-79
2022/02/18 09:37:19;;;;;;;;;;;;;;;10.44;46.56;99847.56;4458162;31;32606;-79
2022/02/18 09:39:47;;;;;;;;;;;;;;;10.40;47.25;99839.03;4459748;31;33658;-80
2022/02/18 09:42:14;;;;;;;;;;;;;;;10.42;46.98;99836.25;4458845;31;35623;-81
2022/02/18 09:44:42;;;;;;;;;;;;;;;10.54;47.37;99829.78;4466165;31;35207;-80
2022/02/18 09:47:12;;;;;;;;;;;;;;;11.01;46.57;99829.66;4458667;31;33092;-80
2022/02/18 09:49:39;;;;;;;;;;;;;;;10.77;46.89;99836.47;4447246;31;33007;-80
2022/02/18 09:52:13;;;;;;;;;;;;;;;11.07;47.96;99829.06;4454258;31;35711;-81
2022/02/18 09:54:41;;;;;;;;;;;;;;;11.39;45.97;99826.81;4458795;31;33959;-79
2022/02/18 09:57:09;;;;;;;;;;;;;;;11.24;46.63;99840.75;4449636;31;34323;-81
2022/02/18 09:59:36;;;;;;;;;;;;;;;11.32;45.39;99833.69;4442011;31;32744;-81
2022/02/18 10:02:04;;;;;;;;;;;;;;;11.39;45.60;99832.13;4465205;31;34490;-81
2022/02/18 10:04:32;;;;;;;;;;;;;;;11.17;46.15;99840.53;4472802;31;34948;-80
2022/02/18 10:07:00;;;;;;;;;;;;;;;11.24;45.83;99843.44;4464924;31;33085;-80
2022/02/18 10:09:57;;;;;;;;;;;;;;;11.27;46.44;99850.13;4457887;31;34759;-80
2022/02/18 10:12:35;;;;;;;;;;;;;;;11.31;46.13;99841.84;4459194;31;35839;-80
2022/02/18 10:15:09;;;;;;;;;;;;;;;11.30;46.24;99849.00;4454776;31;33739;-80
2022/02/18 10:17:40;;;;;;;;;;;;;;;11.33;46.28;99843.38;4464003;31;32542;-80
2022/02/18 10:22:59;;;;;;;;;;;;;;;11.55;46.47;99842.97;4481180;31;35328;-79
2022/02/18 10:25:27;;;;;;;;;;;;;;;11.81;45.63;99827.97;4478946;31;34458;-81
2022/02/18 10:27:55;;;;;;;;;;;;;;;11.86;46.07;99818.53;4475091;31;33549;-80
2022/02/18 10:30:26;;;;;;;;;;;;;;;11.88;45.02;99815.69;4450068;31;33897;-80
2022/02/18 10:32:55;;;;;;;;;;;;;;;11.94;45.77;99807.09;4462203;31;35115;-80
2022/02/18 10:35:30;;;;;;;;;;;;;;;12.46;45.23;99796.38;4462500;31;34225;-79
2022/02/18 10:37:57;;;;;;;;;;;;;;;12.21;44.81;99807.84;4459774;31;32907;-80
2022/02/18 10:40:26;;;;;;;;;;;;;;;12.14;45.05;99800.63;4466042;31;31821;-81
2022/02/18 10:42:54;;;;;;;;;;;;;;;12.37;43.99;99797.31;4458300;31;34581;-80
2022/02/18 10:45:29;;;;;;;;;;;;;;;12.39;43.75;99789.97;4483220;26;34781;-80
2022/02/18 10:48:06;;;;;;;;;;;;;;;12.44;43.55;99782.34;4435887;32;32776;-80
2022/02/18 10:50:35;;;;;;;;;;;;;;;12.67;43.79;99767.47;4464717;32;34906;-79
2022/02/18 10:53:09;;;;;;;;;;;;;;;12.88;42.78;99775.09;4446959;32;35143;-79
2022/02/18 10:55:46;;;;;;;;;;;;;;;12.60;43.50;99779.81;4445745;32;34762;-80
2022/02/18 10:58:24;;;;;;;;;;;;;;;12.74;42.73;99781.88;4459664;32;33683;-81
2022/02/18 11:01:05;;;;;;;;;;;;;;;12.99;42.12;99775.72;4424026;32;32469;-80
2022/02/18 11:03:33;;;;;;;;;;;;;;;12.66;42.59;99776.47;4473553;32;36240;-80
2022/02/18 11:06:15;;;;;;;;;;;;;;;12.78;43.54;99777.06;4434650;32;34699;-79
2022/02/18 11:08:54;;;;;;;;;;;;;;;13.10;43.07;99772.75;4456710;32;34340;-79
2022/02/18 11:11:22;;;;;;;;;;;;;;;12.42;43.86;99772.81;4450082;32;34149;-81
2022/02/18 11:13:50;;;;;;;;;;;;;;;12.93;43.61;99759.47;4461441;32;35998;-80
2022/02/18 11:16:18;;;;;;;;;;;;;;;12.30;43.76;99747.41;4447586;32;36266;-79
2022/02/18 11:18:47;;;;;;;;;;;;;;;12.83;42.77;99745.41;4447712;32;32332;-80
2022/02/18 11:21:21;;;;;;;;;;;;;;;12.96;43.32;99743.16;4472366;32;34202;-80
2022/02/18 11:23:51;;;;;;;;;;;;;;;13.40;42.87;99732.09;4461094;32;36094;-81
2022/02/18 11:26:20;;;;;;;;;;;;;;;13.39;41.53;99718.91;4445437;32;34384;-80
2022/02/18 11:28:49;;;;;;;;;;;;;;;13.15;42.19;99709.00;4438900;32;33124;-79
2022/02/18 11:31:21;;;;;;;;;;;;;;;12.82;41.51;99707.16;4461956;32;33990;-80
2022/02/18 11:33:59;;;;;;;;;;;;;;;13.56;40.05;99704.56;4442325;32;34477;-79
2022/02/18 11:36:33;;;;;;;;;;;;;;;13.75;39.72;99697.06;4448579;32;33562;-80
2022/02/18 11:39:08;;;;;;;;;;;;;;;13.89;40.31;99695.56;4469841;32;33301;-80
2022/02/18 11:41:37;;;;;;;;;;;;;;;13.66;40.81;99695.41;4465632;32;34782;-80
2022/02/18 11:44:06;;;;;;;;;;;;;;;13.93;40.62;99696.87;4449044;32;35350;-79
2022/02/18 11:46:33;;;;;;;;;;;;;;;13.40;40.36;99688.53;4453250;32;32782;-80
2022/02/18 11:49:02;;;;;;;;;;;;;;;13.85;39.58;99676.34;4440889;32;32712;-80
2022/02/18 11:51:44;;;;;;;;;;;;;;;13.90;39.99;99682.03;4445203;32;32787;-80
2022/02/18 11:54:27;;;;;;;;;;;;;;;13.69;40.21;99676.34;4438979;32;36008;-79
2022/02/18 11:57:12;;;;;;;;;;;;;;;13.88;40.33;99665.31;4424336;32;33447;-80
2022/02/18 11:59:58;;;;;;;;;;;;;;;13.71;39.69;99663.66;4438386;32;32875;-80
2022/02/18 12:02:34;;;;;;;;;;;;;;;13.95;39.46;99662.81;4454395;32;33838;-80
2022/02/18 12:05:05;;;;;;;;;;;;;;;14.25;39.53;99660.28;4450737;32;35877;-80
2022/02/18 12:07:37;;;;;;;;;;;;;;;14.77;39.25;99654.22;4465893;32;34983;-80
2022/02/18 12:10:12;;;;;;;;;;;;;;;14.38;39.44;99665.09;4444225;32;32292;-80
2022/02/18 12:12:41;;;;;;;;;;;;;;;14.32;40.03;99660.44;4437928;32;32976;-81
2022/02/18 12:15:11;;;;;;;;;;;;;;;14.68;39.21;99641.06;4455517;32;35223;-80
2022/02/18 12:17:41;;;;;;;;;;;;;;;14.12;40.12;99649.25;4456312;32;33545;-80
2022/02/18 12:20:12;;;;;;;;;;;;;;;14.37;39.74;99644.69;4449447;32;32629;-80
2022/02/18 12:22:39;;;;;;;;;;;;;;;14.55;39.94;99644.28;4461988;32;34205;-80
2022/02/18 12:25:19;;;;;;;;;;;;;;;14.22;40.53;99633.00;4428222;32;34138;-80
2022/02/18 12:27:47;;;;;;;;;;;;;;;14.21;40.56;99626.00;4450826;32;33009;-80
2022/02/18 12:30:22;;;;;;;;;;;;;;;14.29;41.17;99628.66;4452451;32;32717;-80
2022/02/18 12:32:54;;;;;;;;;;;;;;;14.61;41.22;99622.19;4467463;32;35531;-80
2022/02/18 12:35:28;;;;;;;;;;;;;;;14.98;39.74;99622.34;4443122;32;36468;-81
2022/02/18 12:37:55;;;;;;;;;;;;;;;14.66;40.41;99613.63;4446938;32;32902;-79
2022/02/18 12:40:29;;;;;;;;;;;;;;;15.12;39.06;99604.69;4454091;32;32529;-81
2022/02/18 12:42:59;;;;;;;;;;;;;;;15.44;39.54;99601.78;4449111;32;33666;-81
2022/02/18 12:45:56;;;;;;;;;;;;;;;15.49;39.40;99597.53;4438352;32;33883;-81
2022/02/18 12:48:31;;;;;;;;;;;;;;;15.93;39.15;99587.75;4441309;32;34043;-81
2022/02/18 12:51:00;;;;;;;;;;;;;;;15.66;39.42;99584.81;4449251;32;33155;-81
2022/02/18 12:53:28;;;;;;;;;;;;;;;15.81;39.30;99583.03;4460337;32;34769;-81
2022/02/18 12:55:55;;;;;;;;;;;;;;;15.49;40.58;99583.31;4458830;32;35095;-81
2022/02/18 12:58:26;;;;;;;;;;;;;;;15.86;39.48;99583.31;4468722;32;35108;-80
2022/02/18 13:00:54;;;;;;;;;;;;;;;16.48;39.48;99585.50;4442571;32;31851;-80
2022/02/18 13:03:23;;;;;;;;;;;;;;;16.08;39.35;99587.78;4453009;32;33737;-81
2022/02/18 13:06:01;;;;;;;;;;;;;;;15.74;38.93;99568.66;4428102;32;34493;-80